sensor_id;sensor_type;location;lat;lon;timestamp;temperature;humidity
2993;DHT22;1506;48.932;9.478;2023-11-18T00:00:01;6.10;99.90
2993;DHT22;1506;48.932;9.478;2023-11-18T00:02:31;6.10;99.90
2993;DHT22;1506;48.932;9.478;2023-11-18T00:05:00;6.20;99.90
2993;DHT22;1506;48.932;9.478;2023-11-18T00:07:28;6.00;99.90
2993;DHT22;1506;48.932;9.478;2023-11-18T00:09:55;5.90;99.90
2993;DHT22;1506;48.932;9.478;2023-11-18T00:12:23;5.90;99.90
2993;DHT22;1506;48.932;9.478;2023-11-18T00:14:51;5.90;99.90
2993;DHT22;1506;48.932;9.478;2023-11-18T00:17:18;5.80;99.90
2993;DHT22;1506;48.932;9.478;2023-11-18T00:19:46;5.90;99.90
2993;DHT22;1506;48.932;9.478;2023-11-18T00:22:14;5.90;99.90
2993;DHT22;1506;48.932;9.478;2023-11-18T00:24:41;5.90;99.90
2993;DHT22;1506;48.932;9.478;2023-11-18T00:27:10;6.00;99.90
2993;DHT22;1506;48.932;9.478;2023-11-18T00:29:37;5.90;99.90
2993;DHT22;1506;48.932;9.478;2023-11-18T00:32:04;5.90;99.90
2993;DHT22;1506;48.932;9.478;2023-11-18T00:34:35;6.00;99.90
2993;DHT22;1506;48.932;9.478;2023-11-18T00:37:03;6.00;99.90
2993;DHT22;1506;48.932;9.478;2023-11-18T00:39:30;6.10;99.90
2993;DHT22;1506;48.932;9.478;2023-11-18T00:41:57;6.10;99.90
2993;DHT22;1506;48.932;9.478;2023-11-18T00:44:24;6.00;99.90
2993;DHT22;1506;48.932;9.478;2023-11-18T00:46:51;6.00;99.90
2993;DHT22;1506;48.932;9.478;2023-11-18T00:49:19;6.00;99.90
2993;DHT22;1506;48.932;9.478;2023-11-18T00:51:46;6.00;99.90
2993;DHT22;1506;48.932;9.478;2023-11-18T00:54:13;6.00;99.90
2993;DHT22;1506;48.932;9.478;2023-11-18T00:56:41;6.00;99.90
2993;DHT22;1506;48.932;9.478;2023-11-18T00:59:08;6.00;99.90
2993;DHT22;1506;48.932;9.478;2023-11-18T01:01:35;6.00;99.90
2993;DHT22;1506;48.932;9.478;2023-11-18T01:04:03;5.90;99.90
2993;DHT22;1506;48.932;9.478;2023-11-18T01:06:32;5.90;99.90
2993;DHT22;1506;48.932;9.478;2023-11-18T01:08:59;5.90;99.90
2993;DHT22;1506;48.932;9.478;2023-11-18T01:11:27;5.90;99.90
2993;DHT22;1506;48.932;9.478;2023-11-18T01:13:54;6.00;99.90
2993;DHT22;1506;48.932;9.478;2023-11-18T01:16:23;6.00;99.90
2993;DHT22;1506;48.932;9.478;2023-11-18T01:18:50;6.00;99.90
2993;DHT22;1506;48.932;9.478;2023-11-18T01:21:18;6.00;99.90
2993;DHT22;1506;48.932;9.478;2023-11-18T01:23:45;6.20;99.90
2993;DHT22;1506;48.932;9.478;2023-11-18T01:26:12;5.80;99.90
2993;DHT22;1506;48.932;9.478;2023-11-18T01:28:39;5.90;99.90
2993;DHT22;1506;48.932;9.478;2023-11-18T01:31:09;5.90;99.90
2993;DHT22;1506;48.932;9.478;2023-11-18T01:33:37;5.90;99.90
2993;DHT22;1506;48.932;9.478;2023-11-18T01:36:07;5.90;99.90
2993;DHT22;1506;48.932;9.478;2023-11-18T01:38:37;5.90;99.90
2993;DHT22;1506;48.932;9.478;2023-11-18T01:41:05;5.90;99.90
2993;DHT22;1506;48.932;9.478;2023-11-18T01:43:33;5.80;99.90
2993;DHT22;1506;48.932;9.478;2023-11-18T01:46:04;5.90;99.90
2993;DHT22;1506;48.932;9.478;2023-11-18T01:48:32;5.90;99.90
2993;DHT22;1506;48.932;9.478;2023-11-18T01:51:03;5.90;99.90
2993;DHT22;1506;48.932;9.478;2023-11-18T01:53:32;6.00;99.90
2993;DHT22;1506;48.932;9.478;2023-11-18T01:56:00;5.90;99.90
2993;DHT22;1506;48.932;9.478;2023-11-18T01:58:27;6.20;99.90
2993;DHT22;1506;48.932;9.478;2023-11-18T02:00:57;5.90;99.90
2993;DHT22;1506;48.932;9.478;2023-11-18T02:03:25;5.90;99.90
2993;DHT22;1506;48.932;9.478;2023-11-18T02:05:54;5.80;99.90
2993;DHT22;1506;48.932;9.478;2023-11-18T02:08:21;5.90;99.90
2993;DHT22;1506;48.932;9.478;2023-11-18T02:10:51;6.00;99.90
2993;DHT22;1506;48.932;9.478;2023-11-18T02:13:23;6.00;99.90
2993;DHT22;1506;48.932;9.478;2023-11-18T02:15:55;5.90;99.90
2993;DHT22;1506;48.932;9.478;2023-11-18T02:18:26;6.20;99.90
2993;DHT22;1506;48.932;9.478;2023-11-18T02:20:56;6.00;99.90
2993;DHT22;1506;48.932;9.478;2023-11-18T02:23:26;5.90;99.90
2993;DHT22;1506;48.932;9.478;2023-11-18T02:25:54;5.80;99.90
2993;DHT22;1506;48.932;9.478;2023-11-18T02:28:27;5.90;99.90
2993;DHT22;1506;48.932;9.478;2023-11-18T02:30:56;5.90;99.90
2993;DHT22;1506;48.932;9.478;2023-11-18T02:33:40;5.90;99.90
2993;DHT22;1506;48.932;9.478;2023-11-18T02:36:26;6.20;99.90
2993;DHT22;1506;48.932;9.478;2023-11-18T02:39:08;5.80;99.90
2993;DHT22;1506;48.932;9.478;2023-11-18T02:41:42;5.90;99.90
2993;DHT22;1506;48.932;9.478;2023-11-18T02:44:13;5.90;99.90
2993;DHT22;1506;48.932;9.478;2023-11-18T02:46:44;6.00;99.90
2993;DHT22;1506;48.932;9.478;2023-11-18T02:49:12;6.00;99.90
2993;DHT22;1506;48.932;9.478;2023-11-18T02:51:39;6.00;99.90
2993;DHT22;1506;48.932;9.478;2023-11-18T02:54:06;6.00;99.90
2993;DHT22;1506;48.932;9.478;2023-11-18T02:56:33;6.00;99.90
2993;DHT22;1506;48.932;9.478;2023-11-18T02:59:00;6.10;99.90
2993;DHT22;1506;48.932;9.478;2023-11-18T03:01:27;6.00;99.90
2993;DHT22;1506;48.932;9.478;2023-11-18T03:03:56;6.20;99.90
2993;DHT22;1506;48.932;9.478;2023-11-18T03:06:23;6.00;99.90
2993;DHT22;1506;48.932;9.478;2023-11-18T03:08:50;5.90;99.90
2993;DHT22;1506;48.932;9.478;2023-11-18T03:11:19;6.00;99.90
2993;DHT22;1506;48.932;9.478;2023-11-18T03:13:47;5.90;99.90
2993;DHT22;1506;48.932;9.478;2023-11-18T03:16:14;5.80;99.90
2993;DHT22;1506;48.932;9.478;2023-11-18T03:18:46;5.60;99.90
2993;DHT22;1506;48.932;9.478;2023-11-18T03:21:14;5.50;99.90
2993;DHT22;1506;48.932;9.478;2023-11-18T03:23:42;5.40;99.90
2993;DHT22;1506;48.932;9.478;2023-11-18T03:26:09;5.50;99.90
2993;DHT22;1506;48.932;9.478;2023-11-18T03:28:39;5.50;99.90
2993;DHT22;1506;48.932;9.478;2023-11-18T03:31:07;5.70;99.90
2993;DHT22;1506;48.932;9.478;2023-11-18T03:33:34;5.70;99.90
2993;DHT22;1506;48.932;9.478;2023-11-18T03:36:02;5.80;99.90
2993;DHT22;1506;48.932;9.478;2023-11-18T03:38:30;5.90;99.90
2993;DHT22;1506;48.932;9.478;2023-11-18T03:40:57;6.00;99.90
2993;DHT22;1506;48.932;9.478;2023-11-18T03:43:25;6.00;99.90
2993;DHT22;1506;48.932;9.478;2023-11-18T03:45:52;5.80;99.90
2993;DHT22;1506;48.932;9.478;2023-11-18T03:48:23;5.70;99.90
2993;DHT22;1506;48.932;9.478;2023-11-18T03:50:50;5.70;99.90
2993;DHT22;1506;48.932;9.478;2023-11-18T03:53:18;5.70;99.90
2993;DHT22;1506;48.932;9.478;2023-11-18T03:55:45;5.60;99.90
2993;DHT22;1506;48.932;9.478;2023-11-18T03:58:12;5.60;99.90
2993;DHT22;1506;48.932;9.478;2023-11-18T04:00:40;5.80;99.90
2993;DHT22;1506;48.932;9.478;2023-11-18T04:03:07;5.90;99.90
2993;DHT22;1506;48.932;9.478;2023-11-18T04:05:34;6.10;99.90
2993;DHT22;1506;48.932;9.478;2023-11-18T04:08:01;6.30;99.90
2993;DHT22;1506;48.932;9.478;2023-11-18T04:10:29;6.00;99.90
2993;DHT22;1506;48.932;9.478;2023-11-18T04:12:57;6.10;99.90
2993;DHT22;1506;48.932;9.478;2023-11-18T04:15:24;6.10;99.90
2993;DHT22;1506;48.932;9.478;2023-11-18T04:17:52;5.90;99.90
2993;DHT22;1506;48.932;9.478;2023-11-18T04:20:19;5.80;99.90
2993;DHT22;1506;48.932;9.478;2023-11-18T04:22:46;5.80;99.90
2993;DHT22;1506;48.932;9.478;2023-11-18T04:25:13;5.90;99.90
2993;DHT22;1506;48.932;9.478;2023-11-18T04:27:40;5.90;99.90
2993;DHT22;1506;48.932;9.478;2023-11-18T04:30:14;5.80;99.90
2993;DHT22;1506;48.932;9.478;2023-11-18T04:32:42;5.80;99.90
2993;DHT22;1506;48.932;9.478;2023-11-18T04:35:10;5.80;99.90
2993;DHT22;1506;48.932;9.478;2023-11-18T04:37:40;6.00;99.90
2993;DHT22;1506;48.932;9.478;2023-11-18T04:40:10;6.00;99.90
2993;DHT22;1506;48.932;9.478;2023-11-18T04:42:40;6.10;99.90
2993;DHT22;1506;48.932;9.478;2023-11-18T04:45:11;6.10;99.90
2993;DHT22;1506;48.932;9.478;2023-11-18T04:47:38;6.10;99.90
2993;DHT22;1506;48.932;9.478;2023-11-18T04:50:06;6.20;99.90
2993;DHT22;1506;48.932;9.478;2023-11-18T04:52:35;5.90;99.90
2993;DHT22;1506;48.932;9.478;2023-11-18T04:55:04;5.70;99.90
2993;DHT22;1506;48.932;9.478;2023-11-18T04:57:36;5.60;99.90
2993;DHT22;1506;48.932;9.478;2023-11-18T05:00:06;5.50;99.90
2993;DHT22;1506;48.932;9.478;2023-11-18T05:02:38;5.40;99.90
2993;DHT22;1506;48.932;9.478;2023-11-18T05:05:06;5.60;99.90
2993;DHT22;1506;48.932;9.478;2023-11-18T05:07:34;5.40;99.90
2993;DHT22;1506;48.932;9.478;2023-11-18T05:10:02;5.40;99.90
2993;DHT22;1506;48.932;9.478;2023-11-18T05:12:38;5.40;99.90
2993;DHT22;1506;48.932;9.478;2023-11-18T05:15:06;5.50;99.90
2993;DHT22;1506;48.932;9.478;2023-11-18T05:17:37;5.50;99.90
2993;DHT22;1506;48.932;9.478;2023-11-18T05:20:05;5.50;99.90
2993;DHT22;1506;48.932;9.478;2023-11-18T05:22:38;5.70;99.90
2993;DHT22;1506;48.932;9.478;2023-11-18T05:25:05;6.10;99.90
2993;DHT22;1506;48.932;9.478;2023-11-18T05:27:32;5.60;99.90
2993;DHT22;1506;48.932;9.478;2023-11-18T05:30:00;5.80;99.90
2993;DHT22;1506;48.932;9.478;2023-11-18T05:32:27;5.90;99.90
2993;DHT22;1506;48.932;9.478;2023-11-18T05:34:55;6.10;99.90
2993;DHT22;1506;48.932;9.478;2023-11-18T05:37:24;5.90;99.90
2993;DHT22;1506;48.932;9.478;2023-11-18T05:39:55;5.70;99.90
2993;DHT22;1506;48.932;9.478;2023-11-18T05:42:33;5.70;99.90
2993;DHT22;1506;48.932;9.478;2023-11-18T05:45:06;5.60;99.90
2993;DHT22;1506;48.932;9.478;2023-11-18T05:47:34;5.60;99.90
2993;DHT22;1506;48.932;9.478;2023-11-18T05:50:02;5.60;99.90
2993;DHT22;1506;48.932;9.478;2023-11-18T05:52:32;5.70;99.90
2993;DHT22;1506;48.932;9.478;2023-11-18T05:54:59;5.70;99.90
2993;DHT22;1506;48.932;9.478;2023-11-18T05:57:26;5.80;99.90
2993;DHT22;1506;48.932;9.478;2023-11-18T05:59:54;5.80;99.90
2993;DHT22;1506;48.932;9.478;2023-11-18T06:02:21;5.90;99.90
2993;DHT22;1506;48.932;9.478;2023-11-18T06:04:50;5.80;99.90
2993;DHT22;1506;48.932;9.478;2023-11-18T06:07:18;5.70;99.90
2993;DHT22;1506;48.932;9.478;2023-11-18T06:09:45;5.60;99.90
2993;DHT22;1506;48.932;9.478;2023-11-18T06:12:13;5.20;99.90
2993;DHT22;1506;48.932;9.478;2023-11-18T06:14:40;5.00;99.90
2993;DHT22;1506;48.932;9.478;2023-11-18T06:17:08;4.90;99.90
2993;DHT22;1506;48.932;9.478;2023-11-18T06:19:35;4.70;99.90
2993;DHT22;1506;48.932;9.478;2023-11-18T06:22:03;4.70;99.90
2993;DHT22;1506;48.932;9.478;2023-11-18T06:24:30;4.70;99.90
2993;DHT22;1506;48.932;9.478;2023-11-18T06:26:57;4.70;99.90
2993;DHT22;1506;48.932;9.478;2023-11-18T06:29:26;4.60;99.90
2993;DHT22;1506;48.932;9.478;2023-11-18T06:31:53;4.50;99.90
2993;DHT22;1506;48.932;9.478;2023-11-18T06:34:20;4.50;99.90
2993;DHT22;1506;48.932;9.478;2023-11-18T06:36:47;4.50;99.90
2993;DHT22;1506;48.932;9.478;2023-11-18T06:39:15;4.40;99.90
2993;DHT22;1506;48.932;9.478;2023-11-18T06:41:43;4.30;99.90
2993;DHT22;1506;48.932;9.478;2023-11-18T06:44:16;4.40;99.90
2993;DHT22;1506;48.932;9.478;2023-11-18T06:46:50;4.40;99.90
2993;DHT22;1506;48.932;9.478;2023-11-18T06:49:20;4.40;99.90
2993;DHT22;1506;48.932;9.478;2023-11-18T06:51:47;4.70;99.90
2993;DHT22;1506;48.932;9.478;2023-11-18T06:54:15;4.40;99.90
2993;DHT22;1506;48.932;9.478;2023-11-18T06:56:44;4.50;99.90
2993;DHT22;1506;48.932;9.478;2023-11-18T06:59:12;4.40;99.90
2993;DHT22;1506;48.932;9.478;2023-11-18T07:01:41;4.40;99.90
2993;DHT22;1506;48.932;9.478;2023-11-18T07:04:12;4.60;99.90
2993;DHT22;1506;48.932;9.478;2023-11-18T07:06:42;4.90;99.90
2993;DHT22;1506;48.932;9.478;2023-11-18T07:09:10;5.00;99.90
2993;DHT22;1506;48.932;9.478;2023-11-18T07:11:45;4.90;99.90
2993;DHT22;1506;48.932;9.478;2023-11-18T07:14:14;4.90;99.90
2993;DHT22;1506;48.932;9.478;2023-11-18T07:16:42;5.00;99.90
2993;DHT22;1506;48.932;9.478;2023-11-18T07:19:11;5.20;99.90
2993;DHT22;1506;48.932;9.478;2023-11-18T07:21:48;5.30;99.90
2993;DHT22;1506;48.932;9.478;2023-11-18T07:24:17;5.30;99.90
2993;DHT22;1506;48.932;9.478;2023-11-18T07:26:44;5.40;99.90
2993;DHT22;1506;48.932;9.478;2023-11-18T07:29:12;5.50;99.90
2993;DHT22;1506;48.932;9.478;2023-11-18T07:31:39;5.60;99.90
2993;DHT22;1506;48.932;9.478;2023-11-18T07:34:07;5.80;99.90
2993;DHT22;1506;48.932;9.478;2023-11-18T07:36:34;6.00;99.90
2993;DHT22;1506;48.932;9.478;2023-11-18T07:39:01;6.20;99.90
2993;DHT22;1506;48.932;9.478;2023-11-18T07:41:32;6.30;99.90
2993;DHT22;1506;48.932;9.478;2023-11-18T07:44:00;6.70;99.90
2993;DHT22;1506;48.932;9.478;2023-11-18T07:46:28;7.00;99.90
2993;DHT22;1506;48.932;9.478;2023-11-18T07:48:58;7.20;99.90
2993;DHT22;1506;48.932;9.478;2023-11-18T07:51:26;7.20;99.90
2993;DHT22;1506;48.932;9.478;2023-11-18T07:53:53;7.10;99.90
2993;DHT22;1506;48.932;9.478;2023-11-18T07:56:20;7.20;99.90
2993;DHT22;1506;48.932;9.478;2023-11-18T07:58:50;7.40;99.90
2993;DHT22;1506;48.932;9.478;2023-11-18T08:01:19;7.70;99.90
2993;DHT22;1506;48.932;9.478;2023-11-18T08:03:48;7.70;99.90
2993;DHT22;1506;48.932;9.478;2023-11-18T08:06:18;7.60;99.90
2993;DHT22;1506;48.932;9.478;2023-11-18T08:08:45;7.60;99.90
2993;DHT22;1506;48.932;9.478;2023-11-18T08:11:14;7.20;99.90
2993;DHT22;1506;48.932;9.478;2023-11-18T08:13:41;6.90;99.90
2993;DHT22;1506;48.932;9.478;2023-11-18T08:16:10;6.80;99.90
2993;DHT22;1506;48.932;9.478;2023-11-18T08:18:41;6.90;99.90
2993;DHT22;1506;48.932;9.478;2023-11-18T08:21:08;7.30;99.90
2993;DHT22;1506;48.932;9.478;2023-11-18T08:23:36;7.10;99.90
2993;DHT22;1506;48.932;9.478;2023-11-18T08:26:04;7.00;99.90
2993;DHT22;1506;48.932;9.478;2023-11-18T08:28:33;7.00;99.90
2993;DHT22;1506;48.932;9.478;2023-11-18T08:31:00;7.00;99.90
2993;DHT22;1506;48.932;9.478;2023-11-18T08:33:28;7.20;99.90
2993;DHT22;1506;48.932;9.478;2023-11-18T08:35:56;7.20;99.90
2993;DHT22;1506;48.932;9.478;2023-11-18T08:38:23;7.40;99.90
2993;DHT22;1506;48.932;9.478;2023-11-18T08:40:51;7.30;91.60
2993;DHT22;1506;48.932;9.478;2023-11-18T08:43:18;7.30;72.50
2993;DHT22;1506;48.932;9.478;2023-11-18T08:45:50;7.50;99.90
2993;DHT22;1506;48.932;9.478;2023-11-18T08:48:17;7.70;90.80
2993;DHT22;1506;48.932;9.478;2023-11-18T08:50:45;7.20;86.40
2993;DHT22;1506;48.932;9.478;2023-11-18T08:53:14;7.20;97.50
2993;DHT22;1506;48.932;9.478;2023-11-18T08:55:45;7.50;99.90
2993;DHT22;1506;48.932;9.478;2023-11-18T08:58:21;7.90;99.90
2993;DHT22;1506;48.932;9.478;2023-11-18T09:00:49;7.90;57.70
2993;DHT22;1506;48.932;9.478;2023-11-18T09:03:22;8.10;2.10
2993;DHT22;1506;48.932;9.478;2023-11-18T09:06:04;8.00;9.70
2993;DHT22;1506;48.932;9.478;2023-11-18T09:08:34;7.90;1.00
2993;DHT22;1506;48.932;9.478;2023-11-18T09:11:06;8.10;27.50
2993;DHT22;1506;48.932;9.478;2023-11-18T09:13:34;8.50;1.00
2993;DHT22;1506;48.932;9.478;2023-11-18T09:16:05;8.70;1.00
2993;DHT22;1506;48.932;9.478;2023-11-18T09:18:36;8.70;1.00
2993;DHT22;1506;48.932;9.478;2023-11-18T09:21:09;8.90;1.00
2993;DHT22;1506;48.932;9.478;2023-11-18T09:23:43;9.40;1.00
2993;DHT22;1506;48.932;9.478;2023-11-18T09:26:11;9.50;1.00
2993;DHT22;1506;48.932;9.478;2023-11-18T09:28:39;9.40;99.90
2993;DHT22;1506;48.932;9.478;2023-11-18T09:31:07;9.70;99.90
2993;DHT22;1506;48.932;9.478;2023-11-18T09:33:39;10.00;1.00
2993;DHT22;1506;48.932;9.478;2023-11-18T09:36:11;10.40;1.60
2993;DHT22;1506;48.932;9.478;2023-11-18T09:38:39;11.20;1.00
2993;DHT22;1506;48.932;9.478;2023-11-18T09:41:08;11.20;99.90
2993;DHT22;1506;48.932;9.478;2023-11-18T09:43:40;11.20;99.90
2993;DHT22;1506;48.932;9.478;2023-11-18T09:48:43;11.40;70.90
2993;DHT22;1506;48.932;9.478;2023-11-18T09:51:23;9.10;1.00
2993;DHT22;1506;48.932;9.478;2023-11-18T09:53:55;9.10;99.90
2993;DHT22;1506;48.932;9.478;2023-11-18T09:59:31;10.40;99.90
2993;DHT22;1506;48.932;9.478;2023-11-18T10:02:04;11.10;1.00
2993;DHT22;1506;48.932;9.478;2023-11-18T10:04:32;11.00;1.00
2993;DHT22;1506;48.932;9.478;2023-11-18T10:07:01;10.60;99.90
2993;DHT22;1506;48.932;9.478;2023-11-18T10:09:29;10.80;1.00
2993;DHT22;1506;48.932;9.478;2023-11-18T10:12:04;11.30;99.90
2993;DHT22;1506;48.932;9.478;2023-11-18T10:14:33;11.50;20.00
2993;DHT22;1506;48.932;9.478;2023-11-18T10:17:04;12.10;99.90
2993;DHT22;1506;48.932;9.478;2023-11-18T10:22:23;10.80;1.00
2993;DHT22;1506;48.932;9.478;2023-11-18T10:24:56;11.10;99.90
2993;DHT22;1506;48.932;9.478;2023-11-18T10:27:24;10.60;99.90
2993;DHT22;1506;48.932;9.478;2023-11-18T10:29:57;10.30;99.90
2993;DHT22;1506;48.932;9.478;2023-11-18T10:32:25;10.00;99.90
2993;DHT22;1506;48.932;9.478;2023-11-18T10:34:55;9.90;1.00
2993;DHT22;1506;48.932;9.478;2023-11-18T10:37:27;9.90;92.70
2993;DHT22;1506;48.932;9.478;2023-11-18T10:40:03;9.80;1.00
2993;DHT22;1506;48.932;9.478;2023-11-18T10:42:32;9.70;99.90
2993;DHT22;1506;48.932;9.478;2023-11-18T10:45:00;9.60;99.90
2993;DHT22;1506;48.932;9.478;2023-11-18T10:47:34;9.60;1.00
2993;DHT22;1506;48.932;9.478;2023-11-18T10:50:06;9.00;99.90
2993;DHT22;1506;48.932;9.478;2023-11-18T10:52:37;8.70;1.00
2993;DHT22;1506;48.932;9.478;2023-11-18T10:55:08;8.80;1.00
2993;DHT22;1506;48.932;9.478;2023-11-18T10:57:40;8.80;1.00
2993;DHT22;1506;48.932;9.478;2023-11-18T11:00:10;8.80;1.00
2993;DHT22;1506;48.932;9.478;2023-11-18T11:02:42;8.60;1.00
2993;DHT22;1506;48.932;9.478;2023-11-18T11:05:09;8.30;1.00
2993;DHT22;1506;48.932;9.478;2023-11-18T11:07:48;8.40;1.00
2993;DHT22;1506;48.932;9.478;2023-11-18T11:10:16;8.60;1.00
2993;DHT22;1506;48.932;9.478;2023-11-18T11:12:50;8.40;1.00
2993;DHT22;1506;48.932;9.478;2023-11-18T11:16:03;8.20;1.00
2993;DHT22;1506;48.932;9.478;2023-11-18T11:18:24;8.20;1.00
2993;DHT22;1506;48.932;9.478;2023-11-18T11:20:57;8.00;1.00
2993;DHT22;1506;48.932;9.478;2023-11-18T11:23:35;8.00;1.00
2993;DHT22;1506;48.932;9.478;2023-11-18T11:32:11;8.30;1.00
2993;DHT22;1506;48.932;9.478;2023-11-18T11:34:46;8.30;1.00
2993;DHT22;1506;48.932;9.478;2023-11-18T11:37:19;8.30;1.00
2993;DHT22;1506;48.932;9.478;2023-11-18T11:39:46;8.30;1.00
2993;DHT22;1506;48.932;9.478;2023-11-18T11:42:15;8.20;1.00
2993;DHT22;1506;48.932;9.478;2023-11-18T11:44:48;8.20;1.00
2993;DHT22;1506;48.932;9.478;2023-11-18T11:47:15;8.20;1.00
2993;DHT22;1506;48.932;9.478;2023-11-18T11:49:52;8.10;1.00
2993;DHT22;1506;48.932;9.478;2023-11-18T11:52:31;8.20;1.00
2993;DHT22;1506;48.932;9.478;2023-11-18T11:58:14;8.30;1.00
2993;DHT22;1506;48.932;9.478;2023-11-18T12:01:01;8.30;1.00
2993;DHT22;1506;48.932;9.478;2023-11-18T12:03:51;8.30;1.00
2993;DHT22;1506;48.932;9.478;2023-11-18T12:06:26;8.40;1.00
2993;DHT22;1506;48.932;9.478;2023-11-18T12:08:53;8.10;1.00
2993;DHT22;1506;48.932;9.478;2023-11-18T12:11:22;8.10;1.00
2993;DHT22;1506;48.932;9.478;2023-11-18T12:14:00;8.30;1.00
2993;DHT22;1506;48.932;9.478;2023-11-18T12:17:00;8.20;1.00
2993;DHT22;1506;48.932;9.478;2023-11-18T12:19:48;8.10;1.00
2993;DHT22;1506;48.932;9.478;2023-11-18T12:24:45;8.30;1.00
2993;DHT22;1506;48.932;9.478;2023-11-18T12:27:41;8.30;1.00
2993;DHT22;1506;48.932;9.478;2023-11-18T12:47:01;8.10;1.00
2993;DHT22;1506;48.932;9.478;2023-11-18T12:49:42;8.10;1.00
2993;DHT22;1506;48.932;9.478;2023-11-18T12:52:10;8.30;1.00
2993;DHT22;1506;48.932;9.478;2023-11-18T12:54:41;8.30;1.00
2993;DHT22;1506;48.932;9.478;2023-11-18T12:57:12;8.30;1.00
2993;DHT22;1506;48.932;9.478;2023-11-18T12:59:42;8.30;1.00
2993;DHT22;1506;48.932;9.478;2023-11-18T13:02:10;8.40;99.90
2993;DHT22;1506;48.932;9.478;2023-11-18T13:04:47;8.20;1.00
2993;DHT22;1506;48.932;9.478;2023-11-18T13:07:16;8.30;1.00
2993;DHT22;1506;48.932;9.478;2023-11-18T13:09:51;8.40;99.90
2993;DHT22;1506;48.932;9.478;2023-11-18T13:12:21;8.20;1.00
2993;DHT22;1506;48.932;9.478;2023-11-18T13:14:50;8.20;1.00
2993;DHT22;1506;48.932;9.478;2023-11-18T13:17:18;8.10;1.00
2993;DHT22;1506;48.932;9.478;2023-11-18T13:19:48;8.20;99.90
2993;DHT22;1506;48.932;9.478;2023-11-18T13:22:21;8.40;99.90
2993;DHT22;1506;48.932;9.478;2023-11-18T13:25:01;8.40;99.90
2993;DHT22;1506;48.932;9.478;2023-11-18T13:27:31;8.40;99.90
2993;DHT22;1506;48.932;9.478;2023-11-18T13:29:59;8.30;72.80
2993;DHT22;1506;48.932;9.478;2023-11-18T13:32:26;8.30;99.90
2993;DHT22;1506;48.932;9.478;2023-11-18T13:34:53;8.20;47.20
2993;DHT22;1506;48.932;9.478;2023-11-18T13:37:21;8.10;1.00
2993;DHT22;1506;48.932;9.478;2023-11-18T13:39:53;8.10;1.00
2993;DHT22;1506;48.932;9.478;2023-11-18T13:42:24;8.20;99.90
2993;DHT22;1506;48.932;9.478;2023-11-18T13:44:59;8.20;99.90
2993;DHT22;1506;48.932;9.478;2023-11-18T13:47:27;8.30;25.70
2993;DHT22;1506;48.932;9.478;2023-11-18T13:49:54;8.10;99.90
2993;DHT22;1506;48.932;9.478;2023-11-18T13:52:21;8.10;99.90
2993;DHT22;1506;48.932;9.478;2023-11-18T13:54:49;8.10;1.00
2993;DHT22;1506;48.932;9.478;2023-11-18T13:57:23;8.10;99.90
2993;DHT22;1506;48.932;9.478;2023-11-18T13:59:50;8.10;99.90
2993;DHT22;1506;48.932;9.478;2023-11-18T14:02:17;8.10;99.90
2993;DHT22;1506;48.932;9.478;2023-11-18T14:04:45;8.10;99.90
2993;DHT22;1506;48.932;9.478;2023-11-18T14:07:16;8.10;99.90
2993;DHT22;1506;48.932;9.478;2023-11-18T14:09:44;8.10;24.10
2993;DHT22;1506;48.932;9.478;2023-11-18T14:12:13;8.10;99.90
2993;DHT22;1506;48.932;9.478;2023-11-18T14:14:40;8.10;1.00
2993;DHT22;1506;48.932;9.478;2023-11-18T14:17:08;8.10;99.90
2993;DHT22;1506;48.932;9.478;2023-11-18T14:19:37;8.20;1.00
2993;DHT22;1506;48.932;9.478;2023-11-18T14:22:04;8.20;1.00
2993;DHT22;1506;48.932;9.478;2023-11-18T14:24:36;8.20;1.00
2993;DHT22;1506;48.932;9.478;2023-11-18T14:27:03;8.20;1.00
2993;DHT22;1506;48.932;9.478;2023-11-18T14:29:31;8.30;1.00
2993;DHT22;1506;48.932;9.478;2023-11-18T14:31:58;8.20;1.00
2993;DHT22;1506;48.932;9.478;2023-11-18T14:34:26;8.20;1.00
2993;DHT22;1506;48.932;9.478;2023-11-18T14:36:53;8.10;1.00
2993;DHT22;1506;48.932;9.478;2023-11-18T14:39:20;8.10;1.00
2993;DHT22;1506;48.932;9.478;2023-11-18T14:41:50;8.20;1.00
2993;DHT22;1506;48.932;9.478;2023-11-18T14:44:17;8.20;1.00
2993;DHT22;1506;48.932;9.478;2023-11-18T14:46:45;8.20;1.00
2993;DHT22;1506;48.932;9.478;2023-11-18T14:49:13;8.30;1.00
2993;DHT22;1506;48.932;9.478;2023-11-18T14:51:40;8.30;1.00
2993;DHT22;1506;48.932;9.478;2023-11-18T14:54:07;8.30;1.00
2993;DHT22;1506;48.932;9.478;2023-11-18T14:56:36;8.30;1.00
2993;DHT22;1506;48.932;9.478;2023-11-18T14:59:03;8.20;1.00
2993;DHT22;1506;48.932;9.478;2023-11-18T15:01:32;8.20;1.00
2993;DHT22;1506;48.932;9.478;2023-11-18T15:03:59;8.10;1.00
2993;DHT22;1506;48.932;9.478;2023-11-18T15:06:30;8.10;1.00
2993;DHT22;1506;48.932;9.478;2023-11-18T15:08:57;8.10;1.00
2993;DHT22;1506;48.932;9.478;2023-11-18T15:11:24;8.00;1.00
2993;DHT22;1506;48.932;9.478;2023-11-18T15:13:52;7.90;1.00
2993;DHT22;1506;48.932;9.478;2023-11-18T15:16:20;7.80;1.00
2993;DHT22;1506;48.932;9.478;2023-11-18T15:18:49;7.90;1.00
2993;DHT22;1506;48.932;9.478;2023-11-18T15:21:21;7.80;1.00
2993;DHT22;1506;48.932;9.478;2023-11-18T15:23:48;7.80;1.00
2993;DHT22;1506;48.932;9.478;2023-11-18T15:26:16;7.80;1.00
2993;DHT22;1506;48.932;9.478;2023-11-18T15:28:44;8.10;1.00
2993;DHT22;1506;48.932;9.478;2023-11-18T15:31:11;7.90;1.00
2993;DHT22;1506;48.932;9.478;2023-11-18T15:33:39;7.90;1.00
2993;DHT22;1506;48.932;9.478;2023-11-18T15:36:08;7.90;1.00
2993;DHT22;1506;48.932;9.478;2023-11-18T15:38:37;7.90;1.00
2993;DHT22;1506;48.932;9.478;2023-11-18T15:41:05;7.90;1.00
2993;DHT22;1506;48.932;9.478;2023-11-18T15:43:32;7.90;1.00
2993;DHT22;1506;48.932;9.478;2023-11-18T15:45:59;7.90;1.00
2993;DHT22;1506;48.932;9.478;2023-11-18T15:48:26;7.90;1.00
2993;DHT22;1506;48.932;9.478;2023-11-18T15:50:53;8.00;1.00
2993;DHT22;1506;48.932;9.478;2023-11-18T15:53:25;8.00;1.00
2993;DHT22;1506;48.932;9.478;2023-11-18T15:55:55;8.10;1.00
2993;DHT22;1506;48.932;9.478;2023-11-18T15:58:22;7.90;1.00
2993;DHT22;1506;48.932;9.478;2023-11-18T16:00:53;7.90;1.00
2993;DHT22;1506;48.932;9.478;2023-11-18T16:03:20;7.90;1.00
2993;DHT22;1506;48.932;9.478;2023-11-18T16:05:48;8.00;1.00
2993;DHT22;1506;48.932;9.478;2023-11-18T16:08:16;7.80;1.00
2993;DHT22;1506;48.932;9.478;2023-11-18T16:10:43;7.80;1.00
2993;DHT22;1506;48.932;9.478;2023-11-18T16:13:11;7.80;1.00
2993;DHT22;1506;48.932;9.478;2023-11-18T16:15:39;7.80;1.00
2993;DHT22;1506;48.932;9.478;2023-11-18T16:18:08;7.80;1.00
2993;DHT22;1506;48.932;9.478;2023-11-18T16:20:35;7.80;1.00
2993;DHT22;1506;48.932;9.478;2023-11-18T16:23:04;7.70;1.00
2993;DHT22;1506;48.932;9.478;2023-11-18T16:25:32;7.70;1.00
2993;DHT22;1506;48.932;9.478;2023-11-18T16:28:02;7.70;1.00
2993;DHT22;1506;48.932;9.478;2023-11-18T16:30:31;7.70;1.00
2993;DHT22;1506;48.932;9.478;2023-11-18T16:33:00;7.70;1.00
2993;DHT22;1506;48.932;9.478;2023-11-18T16:35:28;7.70;1.00
2993;DHT22;1506;48.932;9.478;2023-11-18T16:38:00;7.70;1.00
2993;DHT22;1506;48.932;9.478;2023-11-18T16:40:28;7.60;1.00
2993;DHT22;1506;48.932;9.478;2023-11-18T16:42:56;7.60;1.00
2993;DHT22;1506;48.932;9.478;2023-11-18T16:45:26;7.40;18.10
2993;DHT22;1506;48.932;9.478;2023-11-18T16:47:53;7.20;34.10
2993;DHT22;1506;48.932;9.478;2023-11-18T16:50:22;7.50;52.10
2993;DHT22;1506;48.932;9.478;2023-11-18T16:52:51;7.10;91.60
2993;DHT22;1506;48.932;9.478;2023-11-18T16:55:19;7.10;98.50
2993;DHT22;1506;48.932;9.478;2023-11-18T16:57:48;7.40;99.90
2993;DHT22;1506;48.932;9.478;2023-11-18T17:00:20;7.10;98.40
2993;DHT22;1506;48.932;9.478;2023-11-18T17:02:54;7.10;85.10
2993;DHT22;1506;48.932;9.478;2023-11-18T17:05:25;7.10;98.40
2993;DHT22;1506;48.932;9.478;2023-11-18T17:07:55;7.10;99.90
2993;DHT22;1506;48.932;9.478;2023-11-18T17:10:22;7.10;99.90
2993;DHT22;1506;48.932;9.478;2023-11-18T17:12:50;7.10;98.40